Аэропорт: Омск-Центральный. Омск

ICAO: UNOO

METAR:
2021-07-28 14:30:00
UNOO 281430Z 15003MPS 9999 BKN033CB 18/14 Q1005 R07/290050 NOSIG RMK QFE745
METAR:
2021-07-28 13:50:00
TAF UNOO 281350Z 2815/2915 27003MPS 8000 -SHRA SCT010 BKN030CB TEMPO 2815/2902 VRB12MPS 1000 TSRA BR SCT005 BKN030CB FM290200 30003G11MPS 9999 SCT030CB BKN033